sensor_id;sensor_type;location;lat;lon;timestamp;pressure;altitude;pressure_sealevel;temperature;humidity
34031;BME280;20319;28.466;-16.274;2022-08-27T00:00:07;99899.59;;;26.54;58.17
34031;BME280;20319;28.466;-16.274;2022-08-27T00:02:34;99875.75;;;26.38;57.83
34031;BME280;20319;28.466;-16.274;2022-08-27T00:05:02;99892.94;;;26.50;58.00
34031;BME280;20319;28.466;-16.274;2022-08-27T00:07:28;99908.88;;;26.48;58.21
34031;BME280;20319;28.466;-16.274;2022-08-27T00:09:54;99905.63;;;26.51;58.23
34031;BME280;20319;28.466;-16.274;2022-08-27T00:12:19;99898.78;;;26.54;57.93
34031;BME280;20319;28.466;-16.274;2022-08-27T00:14:45;99903.66;;;26.68;57.91
34031;BME280;20319;28.466;-16.274;2022-08-27T00:17:11;99887.00;;;26.58;57.84
34031;BME280;20319;28.466;-16.274;2022-08-27T00:19:37;99902.97;;;26.61;58.11
34031;BME280;20319;28.466;-16.274;2022-08-27T00:22:06;99905.69;;;26.56;58.17
34031;BME280;20319;28.466;-16.274;2022-08-27T00:24:33;99910.25;;;26.67;58.03
34031;BME280;20319;28.466;-16.274;2022-08-27T00:26:59;99900.22;;;26.61;57.88
34031;BME280;20319;28.466;-16.274;2022-08-27T00:29:25;99871.19;;;26.49;57.81
34031;BME280;20319;28.466;-16.274;2022-08-27T00:31:51;99873.31;;;26.42;57.98
34031;BME280;20319;28.466;-16.274;2022-08-27T00:34:17;99903.34;;;26.65;57.96
34031;BME280;20319;28.466;-16.274;2022-08-27T00:36:43;99902.44;;;26.59;58.18
34031;BME280;20319;28.466;-16.274;2022-08-27T00:39:10;99902.75;;;26.63;58.17
34031;BME280;20319;28.466;-16.274;2022-08-27T00:41:37;99878.44;;;26.55;58.34
34031;BME280;20319;28.466;-16.274;2022-08-27T00:44:03;99876.41;;;26.67;58.03
34031;BME280;20319;28.466;-16.274;2022-08-27T00:46:44;99887.28;;;26.78;58.14
34031;BME280;20319;28.466;-16.274;2022-08-27T00:52:17;99868.28;;;26.77;58.00
34031;BME280;20319;28.466;-16.274;2022-08-27T00:54:45;99867.50;;;26.81;57.84
34031;BME280;20319;28.466;-16.274;2022-08-27T00:57:12;99847.28;;;26.71;57.91
34031;BME280;20319;28.466;-16.274;2022-08-27T00:59:41;99863.59;;;26.77;57.98
34031;BME280;20319;28.466;-16.274;2022-08-27T01:02:07;99839.16;;;26.59;57.79
34031;BME280;20319;28.466;-16.274;2022-08-27T01:04:55;99856.97;;;26.73;58.05
34031;BME280;20319;28.466;-16.274;2022-08-27T01:07:24;99859.78;;;26.78;57.86
34031;BME280;20319;28.466;-16.274;2022-08-27T01:09:52;99861.44;;;26.79;57.91
34031;BME280;20319;28.466;-16.274;2022-08-27T01:12:18;99854.28;;;26.78;57.90
34031;BME280;20319;28.466;-16.274;2022-08-27T01:14:45;99834.31;;;26.66;58.05
34031;BME280;20319;28.466;-16.274;2022-08-27T01:17:12;99799.59;;;26.39;58.05
34031;BME280;20319;28.466;-16.274;2022-08-27T01:19:49;99834.91;;;26.68;57.98
34031;BME280;20319;28.466;-16.274;2022-08-27T01:25:20;99792.56;;;26.48;58.14
34031;BME280;20319;28.466;-16.274;2022-08-27T01:27:48;99808.00;;;26.54;58.27
34031;BME280;20319;28.466;-16.274;2022-08-27T01:30:16;99814.00;;;26.67;58.48
34031;BME280;20319;28.466;-16.274;2022-08-27T01:32:43;99817.03;;;26.71;58.04
34031;BME280;20319;28.466;-16.274;2022-08-27T01:35:11;99815.97;;;26.72;58.20
34031;BME280;20319;28.466;-16.274;2022-08-27T01:37:42;99808.50;;;26.67;58.13
34031;BME280;20319;28.466;-16.274;2022-08-27T01:40:10;99814.50;;;26.64;58.74
34031;BME280;20319;28.466;-16.274;2022-08-27T01:42:39;99816.91;;;26.61;58.96
34031;BME280;20319;28.466;-16.274;2022-08-27T01:47:34;99814.09;;;26.56;60.01
34031;BME280;20319;28.466;-16.274;2022-08-27T01:50:01;99811.75;;;26.43;60.32
34031;BME280;20319;28.466;-16.274;2022-08-27T01:52:28;99801.25;;;26.40;60.59
34031;BME280;20319;28.466;-16.274;2022-08-27T01:54:54;99809.63;;;26.50;60.02
34031;BME280;20319;28.466;-16.274;2022-08-27T01:57:20;99794.97;;;26.44;59.73
34031;BME280;20319;28.466;-16.274;2022-08-27T01:59:46;99798.44;;;26.56;59.74
34031;BME280;20319;28.466;-16.274;2022-08-27T02:02:14;99807.16;;;26.48;59.43
34031;BME280;20319;28.466;-16.274;2022-08-27T02:04:41;99781.09;;;26.34;59.50
34031;BME280;20319;28.466;-16.274;2022-08-27T02:07:06;99805.41;;;26.42;59.47
34031;BME280;20319;28.466;-16.274;2022-08-27T02:09:32;99794.84;;;26.34;59.82
34031;BME280;20319;28.466;-16.274;2022-08-27T02:11:59;99787.63;;;26.28;60.05
34031;BME280;20319;28.466;-16.274;2022-08-27T02:14:30;99796.53;;;26.35;59.85
34031;BME280;20319;28.466;-16.274;2022-08-27T02:16:56;99740.63;;;26.03;60.19
34031;BME280;20319;28.466;-16.274;2022-08-27T02:19:22;99798.44;;;26.35;60.41
34031;BME280;20319;28.466;-16.274;2022-08-27T02:21:48;99783.63;;;26.36;60.60
34031;BME280;20319;28.466;-16.274;2022-08-27T02:24:14;99782.59;;;26.42;60.70
34031;BME280;20319;28.466;-16.274;2022-08-27T02:26:40;99759.13;;;26.34;61.02
34031;BME280;20319;28.466;-16.274;2022-08-27T02:29:06;99778.53;;;26.49;60.91
34031;BME280;20319;28.466;-16.274;2022-08-27T02:31:32;99724.78;;;26.10;60.72
34031;BME280;20319;28.466;-16.274;2022-08-27T02:33:57;99762.81;;;26.45;60.10
34031;BME280;20319;28.466;-16.274;2022-08-27T02:36:23;99740.13;;;26.33;59.73
34031;BME280;20319;28.466;-16.274;2022-08-27T02:38:49;99772.78;;;26.51;59.88
34031;BME280;20319;28.466;-16.274;2022-08-27T02:41:22;99765.38;;;26.51;59.70
34031;BME280;20319;28.466;-16.274;2022-08-27T02:43:47;99700.47;;;26.24;59.14
34031;BME280;20319;28.466;-16.274;2022-08-27T02:46:13;99720.75;;;26.44;58.98
34031;BME280;20319;28.466;-16.274;2022-08-27T02:48:40;99756.50;;;26.66;59.00
34031;BME280;20319;28.466;-16.274;2022-08-27T02:51:06;99764.53;;;26.72;58.81
34031;BME280;20319;28.466;-16.274;2022-08-27T02:53:32;99751.47;;;26.63;58.63
34031;BME280;20319;28.466;-16.274;2022-08-27T02:55:58;99702.59;;;26.43;58.24
34031;BME280;20319;28.466;-16.274;2022-08-27T02:58:24;99741.50;;;26.57;58.33
34031;BME280;20319;28.466;-16.274;2022-08-27T03:00:50;99738.22;;;26.60;58.60
34031;BME280;20319;28.466;-16.274;2022-08-27T03:03:16;99732.44;;;26.61;58.37
34031;BME280;20319;28.466;-16.274;2022-08-27T03:05:41;99723.66;;;26.59;58.12
34031;BME280;20319;28.466;-16.274;2022-08-27T03:08:07;99725.97;;;26.67;58.15
34031;BME280;20319;28.466;-16.274;2022-08-27T03:10:34;99713.47;;;26.60;57.68
34031;BME280;20319;28.466;-16.274;2022-08-27T03:13:00;99705.41;;;26.48;57.86
34031;BME280;20319;28.466;-16.274;2022-08-27T03:15:26;99693.78;;;26.41;58.04
34031;BME280;20319;28.466;-16.274;2022-08-27T03:17:52;99710.25;;;26.41;58.48
34031;BME280;20319;28.466;-16.274;2022-08-27T03:20:40;99720.81;;;26.49;58.82
34031;BME280;20319;28.466;-16.274;2022-08-27T03:23:08;99708.69;;;26.45;59.26
34031;BME280;20319;28.466;-16.274;2022-08-27T03:25:34;99710.00;;;26.43;59.49
34031;BME280;20319;28.466;-16.274;2022-08-27T03:28:00;99690.66;;;26.33;59.34
34031;BME280;20319;28.466;-16.274;2022-08-27T03:30:26;99682.13;;;26.34;59.37
34031;BME280;20319;28.466;-16.274;2022-08-27T03:32:51;99690.63;;;26.28;59.02
34031;BME280;20319;28.466;-16.274;2022-08-27T03:35:18;99714.13;;;26.40;59.11
34031;BME280;20319;28.466;-16.274;2022-08-27T03:37:44;99700.00;;;26.32;58.64
34031;BME280;20319;28.466;-16.274;2022-08-27T03:40:11;99704.13;;;26.34;58.42
34031;BME280;20319;28.466;-16.274;2022-08-27T03:42:38;99706.34;;;26.32;58.56
34031;BME280;20319;28.466;-16.274;2022-08-27T03:45:05;99707.13;;;26.28;58.75
34031;BME280;20319;28.466;-16.274;2022-08-27T03:47:31;99689.41;;;26.18;58.78
34031;BME280;20319;28.466;-16.274;2022-08-27T03:49:57;99697.50;;;26.30;58.61
34031;BME280;20319;28.466;-16.274;2022-08-27T03:52:24;99672.09;;;26.18;58.66
34031;BME280;20319;28.466;-16.274;2022-08-27T03:54:50;99681.66;;;26.37;58.54
34031;BME280;20319;28.466;-16.274;2022-08-27T03:57:16;99663.41;;;26.26;58.40
34031;BME280;20319;28.466;-16.274;2022-08-27T03:59:41;99658.75;;;26.32;58.28
34031;BME280;20319;28.466;-16.274;2022-08-27T04:02:07;99672.34;;;26.43;58.20
34031;BME280;20319;28.466;-16.274;2022-08-27T04:04:32;99678.44;;;26.45;58.32
34031;BME280;20319;28.466;-16.274;2022-08-27T04:06:58;99689.50;;;26.55;58.14
34031;BME280;20319;28.466;-16.274;2022-08-27T04:09:24;99668.56;;;26.49;58.03
34031;BME280;20319;28.466;-16.274;2022-08-27T04:11:50;99664.44;;;26.52;58.11
34031;BME280;20319;28.466;-16.274;2022-08-27T04:14:16;99658.03;;;26.41;58.11
34031;BME280;20319;28.466;-16.274;2022-08-27T04:16:41;99659.50;;;26.54;58.13
34031;BME280;20319;28.466;-16.274;2022-08-27T04:19:08;99686.63;;;26.67;58.34
34031;BME280;20319;28.466;-16.274;2022-08-27T04:21:34;99618.56;;;26.26;58.15
34031;BME280;20319;28.466;-16.274;2022-08-27T04:24:00;99669.19;;;26.56;58.32
34031;BME280;20319;28.466;-16.274;2022-08-27T04:26:27;99693.16;;;26.61;58.12
34031;BME280;20319;28.466;-16.274;2022-08-27T04:28:53;99687.06;;;26.59;57.92
34031;BME280;20319;28.466;-16.274;2022-08-27T04:31:19;99683.13;;;26.50;57.76
34031;BME280;20319;28.466;-16.274;2022-08-27T04:33:46;99671.25;;;26.44;58.03
34031;BME280;20319;28.466;-16.274;2022-08-27T04:36:12;99672.63;;;26.42;57.82
34031;BME280;20319;28.466;-16.274;2022-08-27T04:38:38;99671.81;;;26.46;57.73
34031;BME280;20319;28.466;-16.274;2022-08-27T04:41:06;99689.25;;;26.57;57.81
34031;BME280;20319;28.466;-16.274;2022-08-27T04:43:45;99690.66;;;26.59;57.86
34031;BME280;20319;28.466;-16.274;2022-08-27T04:46:11;99693.16;;;26.61;57.57
34031;BME280;20319;28.466;-16.274;2022-08-27T04:48:37;99683.09;;;26.45;57.51
34031;BME280;20319;28.466;-16.274;2022-08-27T04:51:02;99691.13;;;26.51;57.63
34031;BME280;20319;28.466;-16.274;2022-08-27T04:53:28;99687.91;;;26.59;57.31
34031;BME280;20319;28.466;-16.274;2022-08-27T04:55:55;99695.53;;;26.52;57.45
34031;BME280;20319;28.466;-16.274;2022-08-27T04:58:23;99689.97;;;26.47;57.59
34031;BME280;20319;28.466;-16.274;2022-08-27T05:00:51;99681.72;;;26.47;57.56
34031;BME280;20319;28.466;-16.274;2022-08-27T05:03:19;99692.72;;;26.47;57.19
34031;BME280;20319;28.466;-16.274;2022-08-27T05:05:46;99673.41;;;26.37;56.92
34031;BME280;20319;28.466;-16.274;2022-08-27T05:08:12;99701.56;;;26.49;57.12
34031;BME280;20319;28.466;-16.274;2022-08-27T05:10:55;99694.22;;;26.33;57.29
34031;BME280;20319;28.466;-16.274;2022-08-27T05:13:22;99715.56;;;26.48;57.14
34031;BME280;20319;28.466;-16.274;2022-08-27T05:16:01;99684.09;;;26.34;57.38
34031;BME280;20319;28.466;-16.274;2022-08-27T05:18:28;99700.16;;;26.47;57.33
34031;BME280;20319;28.466;-16.274;2022-08-27T05:20:54;99679.63;;;26.28;57.53
34031;BME280;20319;28.466;-16.274;2022-08-27T05:23:21;99721.38;;;26.51;57.30
34031;BME280;20319;28.466;-16.274;2022-08-27T05:25:48;99716.88;;;26.40;57.29
34031;BME280;20319;28.466;-16.274;2022-08-27T05:28:16;99689.97;;;26.21;57.26
34031;BME280;20319;28.466;-16.274;2022-08-27T05:30:45;99716.59;;;26.42;57.49
34031;BME280;20319;28.466;-16.274;2022-08-27T05:33:14;99709.94;;;26.38;57.21
34031;BME280;20319;28.466;-16.274;2022-08-27T05:35:44;99722.19;;;26.52;57.35
34031;BME280;20319;28.466;-16.274;2022-08-27T05:38:10;99685.94;;;26.28;57.07
34031;BME280;20319;28.466;-16.274;2022-08-27T05:40:37;99709.63;;;26.34;57.09
34031;BME280;20319;28.466;-16.274;2022-08-27T05:43:03;99734.44;;;26.39;57.56
34031;BME280;20319;28.466;-16.274;2022-08-27T05:45:30;99729.00;;;26.44;57.64
34031;BME280;20319;28.466;-16.274;2022-08-27T05:47:56;99720.06;;;26.32;57.46
34031;BME280;20319;28.466;-16.274;2022-08-27T05:50:24;99738.09;;;26.45;57.38
34031;BME280;20319;28.466;-16.274;2022-08-27T05:52:50;99747.19;;;26.50;57.49
34031;BME280;20319;28.466;-16.274;2022-08-27T05:55:16;99736.78;;;26.52;57.40
34031;BME280;20319;28.466;-16.274;2022-08-27T05:57:42;99737.41;;;26.59;57.25
34031;BME280;20319;28.466;-16.274;2022-08-27T06:00:08;99742.28;;;26.52;57.22
34031;BME280;20319;28.466;-16.274;2022-08-27T06:02:52;99743.84;;;26.70;56.95
34031;BME280;20319;28.466;-16.274;2022-08-27T06:05:18;99730.53;;;26.62;57.04
34031;BME280;20319;28.466;-16.274;2022-08-27T06:07:44;99698.94;;;26.38;56.66
34031;BME280;20319;28.466;-16.274;2022-08-27T06:10:10;99738.63;;;26.68;56.52
34031;BME280;20319;28.466;-16.274;2022-08-27T06:12:36;99721.06;;;26.48;56.56
34031;BME280;20319;28.466;-16.274;2022-08-27T06:15:02;99740.16;;;26.59;56.38
34031;BME280;20319;28.466;-16.274;2022-08-27T06:17:28;99737.09;;;26.56;56.38
34031;BME280;20319;28.466;-16.274;2022-08-27T06:19:54;99725.00;;;26.57;56.46
34031;BME280;20319;28.466;-16.274;2022-08-27T06:22:20;99718.06;;;26.49;56.43
34031;BME280;20319;28.466;-16.274;2022-08-27T06:24:45;99726.34;;;26.54;56.36
34031;BME280;20319;28.466;-16.274;2022-08-27T06:27:15;99720.47;;;26.46;56.71
34031;BME280;20319;28.466;-16.274;2022-08-27T06:29:42;99736.84;;;26.57;56.38
34031;BME280;20319;28.466;-16.274;2022-08-27T06:32:08;99729.94;;;26.55;56.15
34031;BME280;20319;28.466;-16.274;2022-08-27T06:34:35;99683.19;;;26.28;56.41
34031;BME280;20319;28.466;-16.274;2022-08-27T06:37:01;99737.97;;;26.61;56.17
34031;BME280;20319;28.466;-16.274;2022-08-27T06:39:26;99720.28;;;26.52;56.09
34031;BME280;20319;28.466;-16.274;2022-08-27T06:41:52;99734.13;;;26.62;56.05
34031;BME280;20319;28.466;-16.274;2022-08-27T06:44:18;99735.59;;;26.70;56.11
34031;BME280;20319;28.466;-16.274;2022-08-27T06:46:44;99730.94;;;26.70;56.13
34031;BME280;20319;28.466;-16.274;2022-08-27T06:49:10;99738.31;;;26.65;56.38
34031;BME280;20319;28.466;-16.274;2022-08-27T06:51:38;99745.09;;;26.57;56.69
34031;BME280;20319;28.466;-16.274;2022-08-27T06:55:52;99721.94;;;26.27;56.80
34031;BME280;20319;28.466;-16.274;2022-08-27T06:58:25;99748.91;;;26.30;57.31
34031;BME280;20319;28.466;-16.274;2022-08-27T07:00:51;99744.44;;;26.24;57.25
34031;BME280;20319;28.466;-16.274;2022-08-27T07:03:16;99724.25;;;26.13;57.28
34031;BME280;20319;28.466;-16.274;2022-08-27T07:05:42;99742.94;;;26.38;57.18
34031;BME280;20319;28.466;-16.274;2022-08-27T07:08:08;99757.13;;;26.51;57.02
34031;BME280;20319;28.466;-16.274;2022-08-27T07:10:34;99716.50;;;26.32;56.72
34031;BME280;20319;28.466;-16.274;2022-08-27T07:13:00;99758.19;;;26.50;57.21
34031;BME280;20319;28.466;-16.274;2022-08-27T07:15:26;99730.28;;;26.37;57.12
34031;BME280;20319;28.466;-16.274;2022-08-27T07:17:52;99746.72;;;26.53;56.84
34031;BME280;20319;28.466;-16.274;2022-08-27T07:20:19;99768.03;;;26.68;56.94
34031;BME280;20319;28.466;-16.274;2022-08-27T07:22:45;99764.13;;;26.64;56.64
34031;BME280;20319;28.466;-16.274;2022-08-27T07:25:14;99757.72;;;26.58;56.61
34031;BME280;20319;28.466;-16.274;2022-08-27T07:27:40;99768.22;;;26.61;56.70
34031;BME280;20319;28.466;-16.274;2022-08-27T07:30:09;99779.03;;;26.68;56.48
34031;BME280;20319;28.466;-16.274;2022-08-27T07:32:37;99778.78;;;26.69;56.01
34031;BME280;20319;28.466;-16.274;2022-08-27T07:35:03;99775.41;;;26.62;56.07
34031;BME280;20319;28.466;-16.274;2022-08-27T07:37:29;99765.69;;;26.55;56.53
34031;BME280;20319;28.466;-16.274;2022-08-27T07:39:54;99774.44;;;26.73;56.34
34031;BME280;20319;28.466;-16.274;2022-08-27T07:42:20;99764.13;;;26.64;56.07
34031;BME280;20319;28.466;-16.274;2022-08-27T07:45:04;99757.22;;;26.61;55.84
34031;BME280;20319;28.466;-16.274;2022-08-27T07:47:31;99783.81;;;26.77;55.95
34031;BME280;20319;28.466;-16.274;2022-08-27T07:49:57;99774.75;;;26.77;55.69
34031;BME280;20319;28.466;-16.274;2022-08-27T07:52:23;99767.84;;;26.74;55.70
34031;BME280;20319;28.466;-16.274;2022-08-27T07:54:48;99763.69;;;26.72;55.87
34031;BME280;20319;28.466;-16.274;2022-08-27T07:57:15;99783.56;;;26.79;55.63
34031;BME280;20319;28.466;-16.274;2022-08-27T07:59:41;99775.28;;;26.74;55.64
34031;BME280;20319;28.466;-16.274;2022-08-27T08:02:06;99773.06;;;26.76;55.43
34031;BME280;20319;28.466;-16.274;2022-08-27T08:04:32;99716.09;;;26.45;55.75
34031;BME280;20319;28.466;-16.274;2022-08-27T08:06:58;99771.94;;;26.72;55.83
34031;BME280;20319;28.466;-16.274;2022-08-27T08:09:23;99761.63;;;26.62;56.02
34031;BME280;20319;28.466;-16.274;2022-08-27T08:11:51;99754.97;;;26.58;56.16
34031;BME280;20319;28.466;-16.274;2022-08-27T08:14:17;99789.31;;;26.77;56.19
34031;BME280;20319;28.466;-16.274;2022-08-27T08:16:43;99763.28;;;26.63;56.17
34031;BME280;20319;28.466;-16.274;2022-08-27T08:19:09;99774.13;;;26.70;56.09
34031;BME280;20319;28.466;-16.274;2022-08-27T08:21:35;99796.03;;;26.86;56.30
34031;BME280;20319;28.466;-16.274;2022-08-27T08:24:03;99755.38;;;26.67;56.31
34031;BME280;20319;28.466;-16.274;2022-08-27T08:26:28;99773.84;;;26.71;56.48
34031;BME280;20319;28.466;-16.274;2022-08-27T08:28:54;99778.78;;;26.69;56.64
34031;BME280;20319;28.466;-16.274;2022-08-27T08:31:20;99798.72;;;26.81;56.79
34031;BME280;20319;28.466;-16.274;2022-08-27T08:33:48;99778.56;;;26.76;56.99
34031;BME280;20319;28.466;-16.274;2022-08-27T08:36:15;99777.78;;;26.80;56.94
34031;BME280;20319;28.466;-16.274;2022-08-27T08:38:42;99796.63;;;26.93;56.56
34031;BME280;20319;28.466;-16.274;2022-08-27T08:43:53;99787.31;;;26.94;56.34
34031;BME280;20319;28.466;-16.274;2022-08-27T08:46:30;99800.00;;;27.00;56.11
34031;BME280;20319;28.466;-16.274;2022-08-27T08:49:09;99779.63;;;27.01;56.06
34031;BME280;20319;28.466;-16.274;2022-08-27T08:51:41;99743.88;;;27.01;55.59
34031;BME280;20319;28.466;-16.274;2022-08-27T08:54:22;99764.81;;;27.07;55.56
34031;BME280;20319;28.466;-16.274;2022-08-27T08:57:36;99763.88;;;26.92;55.99
34031;BME280;20319;28.466;-16.274;2022-08-27T09:00:07;99783.97;;;26.92;56.36
34031;BME280;20319;28.466;-16.274;2022-08-27T09:02:45;99779.53;;;26.86;56.26
34031;BME280;20319;28.466;-16.274;2022-08-27T09:05:12;99792.34;;;27.07;56.25
34031;BME280;20319;28.466;-16.274;2022-08-27T09:07:44;99783.59;;;27.10;56.23
34031;BME280;20319;28.466;-16.274;2022-08-27T09:10:36;99781.34;;;27.07;55.97
34031;BME280;20319;28.466;-16.274;2022-08-27T09:13:17;99758.09;;;26.93;55.87
34031;BME280;20319;28.466;-16.274;2022-08-27T09:15:45;99777.09;;;27.21;55.85
34031;BME280;20319;28.466;-16.274;2022-08-27T09:18:13;99767.09;;;27.10;55.68
34031;BME280;20319;28.466;-16.274;2022-08-27T09:20:43;99768.72;;;27.11;55.81
34031;BME280;20319;28.466;-16.274;2022-08-27T09:24:14;99777.38;;;26.93;56.17
34031;BME280;20319;28.466;-16.274;2022-08-27T09:26:24;99779.59;;;26.96;56.47
34031;BME280;20319;28.466;-16.274;2022-08-27T09:28:58;99697.34;;;26.42;57.13
34031;BME280;20319;28.466;-16.274;2022-08-27T09:32:05;99726.41;;;26.59;57.15
34031;BME280;20319;28.466;-16.274;2022-08-27T09:34:40;99772.97;;;26.92;57.30
34031;BME280;20319;28.466;-16.274;2022-08-27T09:37:10;99783.28;;;27.07;56.95
34031;BME280;20319;28.466;-16.274;2022-08-27T09:39:45;99779.25;;;27.19;56.83
34031;BME280;20319;28.466;-16.274;2022-08-27T09:42:40;99778.72;;;27.22;56.18
34031;BME280;20319;28.466;-16.274;2022-08-27T09:45:16;99779.66;;;27.33;55.59
34031;BME280;20319;28.466;-16.274;2022-08-27T09:48:00;99782.22;;;27.44;55.70
34031;BME280;20319;28.466;-16.274;2022-08-27T09:50:41;99760.13;;;27.34;55.82
34031;BME280;20319;28.466;-16.274;2022-08-27T09:53:18;99793.78;;;27.41;55.31
34031;BME280;20319;28.466;-16.274;2022-08-27T09:56:00;99756.66;;;27.17;55.72
34031;BME280;20319;28.466;-16.274;2022-08-27T09:58:30;99778.06;;;27.37;55.49
34031;BME280;20319;28.466;-16.274;2022-08-27T10:01:14;99746.53;;;27.23;55.20
34031;BME280;20319;28.466;-16.274;2022-08-27T10:03:40;99781.38;;;27.44;54.90
34031;BME280;20319;28.466;-16.274;2022-08-27T10:06:07;99788.38;;;27.57;54.13
34031;BME280;20319;28.466;-16.274;2022-08-27T10:08:43;99780.94;;;27.57;54.01
34031;BME280;20319;28.466;-16.274;2022-08-27T10:11:19;99787.06;;;27.64;53.78
34031;BME280;20319;28.466;-16.274;2022-08-27T10:13:55;99788.50;;;27.77;53.69
34031;BME280;20319;28.466;-16.274;2022-08-27T10:16:40;99786.19;;;28.00;53.37
34031;BME280;20319;28.466;-16.274;2022-08-27T10:19:38;99787.41;;;28.24;52.71
34031;BME280;20319;28.466;-16.274;2022-08-27T10:25:02;99790.19;;;28.34;52.48
34031;BME280;20319;28.466;-16.274;2022-08-27T10:27:48;99779.34;;;28.13;52.14
34031;BME280;20319;28.466;-16.274;2022-08-27T10:30:20;99796.50;;;28.25;52.14
34031;BME280;20319;28.466;-16.274;2022-08-27T10:33:26;99797.06;;;28.32;51.61
34031;BME280;20319;28.466;-16.274;2022-08-27T10:38:51;99794.28;;;28.27;51.68
34031;BME280;20319;28.466;-16.274;2022-08-27T10:41:25;99761.38;;;28.00;51.87
34031;BME280;20319;28.466;-16.274;2022-08-27T10:52:27;99795.13;;;28.27;51.38
34031;BME280;20319;28.466;-16.274;2022-08-27T10:57:56;99787.72;;;28.38;50.02
34031;BME280;20319;28.466;-16.274;2022-08-27T11:01:12;99756.53;;;28.32;50.50
34031;BME280;20319;28.466;-16.274;2022-08-27T11:06:31;99788.16;;;28.97;50.32
34031;BME280;20319;28.466;-16.274;2022-08-27T11:09:28;99784.34;;;29.08;50.63
34031;BME280;20319;28.466;-16.274;2022-08-27T11:12:02;99761.97;;;29.24;49.27
34031;BME280;20319;28.466;-16.274;2022-08-27T11:14:34;99779.09;;;29.31;48.44
34031;BME280;20319;28.466;-16.274;2022-08-27T11:17:05;99798.13;;;29.58;48.71
34031;BME280;20319;28.466;-16.274;2022-08-27T11:19:49;99766.09;;;29.42;48.31
34031;BME280;20319;28.466;-16.274;2022-08-27T11:22:31;99769.69;;;29.37;48.20
34031;BME280;20319;28.466;-16.274;2022-08-27T11:25:11;99794.28;;;29.54;48.31
34031;BME280;20319;28.466;-16.274;2022-08-27T11:27:40;99789.81;;;29.58;48.61
34031;BME280;20319;28.466;-16.274;2022-08-27T11:44:18;99787.91;;;29.38;48.69
34031;BME280;20319;28.466;-16.274;2022-08-27T11:46:49;99791.19;;;29.60;47.62
34031;BME280;20319;28.466;-16.274;2022-08-27T11:49:42;99779.31;;;29.70;47.87
34031;BME280;20319;28.466;-16.274;2022-08-27T11:52:09;99786.47;;;29.91;47.20
34031;BME280;20319;28.466;-16.274;2022-08-27T11:54:55;99771.53;;;29.92;46.93
34031;BME280;20319;28.466;-16.274;2022-08-27T11:57:31;99787.28;;;29.91;47.21
34031;BME280;20319;28.466;-16.274;2022-08-27T11:59:58;99779.84;;;29.82;47.42
34031;BME280;20319;28.466;-16.274;2022-08-27T12:02:35;99780.16;;;29.65;46.76
34031;BME280;20319;28.466;-16.274;2022-08-27T12:05:23;99782.41;;;29.28;47.34
34031;BME280;20319;28.466;-16.274;2022-08-27T12:07:56;99748.69;;;29.16;48.04
34031;BME280;20319;28.466;-16.274;2022-08-27T12:13:31;99768.03;;;29.66;47.44
34031;BME280;20319;28.466;-16.274;2022-08-27T12:24:11;99730.16;;;29.37;47.50
34031;BME280;20319;28.466;-16.274;2022-08-27T12:26:41;99743.41;;;29.45;47.88
34031;BME280;20319;28.466;-16.274;2022-08-27T12:29:28;99745.66;;;29.28;47.93
34031;BME280;20319;28.466;-16.274;2022-08-27T12:32:18;99743.47;;;29.25;48.56
34031;BME280;20319;28.466;-16.274;2022-08-27T12:34:58;99715.84;;;29.00;48.74
34031;BME280;20319;28.466;-16.274;2022-08-27T12:37:36;99678.56;;;28.72;49.00
34031;BME280;20319;28.466;-16.274;2022-08-27T12:40:28;99732.38;;;29.05;49.40
34031;BME280;20319;28.466;-16.274;2022-08-27T12:45:32;99706.75;;;29.09;49.10
34031;BME280;20319;28.466;-16.274;2022-08-27T12:47:59;99719.97;;;29.27;48.55
34031;BME280;20319;28.466;-16.274;2022-08-27T12:50:27;99718.84;;;29.38;48.09
34031;BME280;20319;28.466;-16.274;2022-08-27T13:04:15;99721.09;;;29.11;48.63
34031;BME280;20319;28.466;-16.274;2022-08-27T13:06:44;99688.50;;;29.23;48.91
34031;BME280;20319;28.466;-16.274;2022-08-27T13:09:10;99712.16;;;29.59;48.72
34031;BME280;20319;28.466;-16.274;2022-08-27T13:11:48;99705.31;;;29.32;49.36
34031;BME280;20319;28.466;-16.274;2022-08-27T13:14:19;99710.59;;;29.18;49.12
34031;BME280;20319;28.466;-16.274;2022-08-27T13:16:54;99718.31;;;29.26;49.00
34031;BME280;20319;28.466;-16.274;2022-08-27T13:19:33;99691.78;;;29.30;49.16
34031;BME280;20319;28.466;-16.274;2022-08-27T13:22:00;99697.00;;;29.57;49.27
34031;BME280;20319;28.466;-16.274;2022-08-27T13:24:33;99705.53;;;29.65;48.78
34031;BME280;20319;28.466;-16.274;2022-08-27T13:27:03;99703.31;;;29.62;48.52
34031;BME280;20319;28.466;-16.274;2022-08-27T13:29:30;99685.88;;;29.82;48.61
34031;BME280;20319;28.466;-16.274;2022-08-27T13:31:57;99689.91;;;30.09;48.00
34031;BME280;20319;28.466;-16.274;2022-08-27T13:34:26;99689.25;;;30.27;47.98
34031;BME280;20319;28.466;-16.274;2022-08-27T13:36:58;99675.97;;;30.29;47.68
34031;BME280;20319;28.466;-16.274;2022-08-27T13:39:25;99689.28;;;30.22;47.14
34031;BME280;20319;28.466;-16.274;2022-08-27T13:41:52;99662.88;;;29.96;47.43
34031;BME280;20319;28.466;-16.274;2022-08-27T13:44:39;99669.38;;;30.20;46.60
34031;BME280;20319;28.466;-16.274;2022-08-27T13:47:13;99675.41;;;30.33;46.35
34031;BME280;20319;28.466;-16.274;2022-08-27T13:49:40;99651.19;;;30.09;45.65
34031;BME280;20319;28.466;-16.274;2022-08-27T13:54:34;99664.47;;;30.07;45.79
34031;BME280;20319;28.466;-16.274;2022-08-27T13:57:07;99668.13;;;30.42;45.88
34031;BME280;20319;28.466;-16.274;2022-08-27T13:59:38;99659.97;;;30.65;45.55
34031;BME280;20319;28.466;-16.274;2022-08-27T14:05:24;99653.72;;;30.45;44.78
34031;BME280;20319;28.466;-16.274;2022-08-27T14:07:43;99647.13;;;29.92;45.88
34031;BME280;20319;28.466;-16.274;2022-08-27T14:10:45;99660.72;;;29.78;46.07
34031;BME280;20319;28.466;-16.274;2022-08-27T14:13:22;99645.00;;;29.74;46.10